Погода Макатубана неделю

Сан-Паулу, Бразилия

22 - 28 июля
  • 22июля
    Сегодня
    +14°
    +29°
    Ясно и безоблачно
    ВремяПогодаТемператураВлажностьДавлениеВетер, м/сВероятность осадков
    00:00Ясно и безоблачно+16°C77 %717 мм2.1 м/с5 %
    03:00Ясно и безоблачно+15°C84 %716 мм2.2 м/с5 %
    06:00Ясно и безоблачно+15°C89 %717 мм2.2 м/с5 %
    09:00Ясно и безоблачно+18°C75 %718 мм1.7 м/с5 %
    12:00Ясно и безоблачно+26°C39 %719 мм1.0 м/с5 %
    15:00Ясно и безоблачно+29°C29 %717 мм0.4 м/с5 %
    18:00Ясно и безоблачно+24°C45 %717 мм2.4 м/с5 %
    21:00Ясно и безоблачно+22°C58 %717 мм2.4 м/с5 %
  • 23июля
    Вторник
    +14°
    +29°
    Ясно и безоблачно
    ВремяПогодаТемператураВлажностьДавлениеВетер, м/сВероятность осадков
    00:00Ясно и безоблачно+18°C67 %718 мм3.6 м/с5 %
    03:00Ясно и безоблачно+15°C73 %717 мм3.2 м/с5 %
    06:00Ясно и безоблачно+15°C78 %717 мм3.1 м/с5 %
    09:00Ясно и безоблачно+17°C60 %719 мм3.3 м/с5 %
    12:00Ясно и безоблачно+25°C36 %719 мм3.5 м/с5 %
    15:00Ясно и безоблачно+29°C30 %717 мм2.3 м/с5 %
    18:00Ясно и безоблачно+25°C42 %717 мм2.8 м/с5 %
    21:00Небольшая облачность+22°C47 %717 мм2.8 м/с5 %
  • 24июля
    Среда
    +14°
    +30°
    Облачно с прояснениями
    ВремяПогодаТемператураВлажностьДавлениеВетер, м/сВероятность осадков
    00:00Практически безоблачно+18°C58 %717 мм4.1 м/с5 %
    03:00Ясно и безоблачно+15°C72 %716 мм3.4 м/с5 %
    06:00Ясно и безоблачно+15°C78 %717 мм3.2 м/с5 %
    09:00Ясно и безоблачно+17°C63 %719 мм2.4 м/с5 %
    12:00Небольшая облачность+26°C41 %719 мм1.9 м/с5 %
    15:00Облачно с прояснениями+30°C30 %717 мм0.4 м/с5 %
    18:00Небольшая облачность+25°C47 %717 мм1.9 м/с5 %
    21:00Практически безоблачно+23°C55 %717 мм2.9 м/с5 %
  • 25июля
    Четверг
    +16°
    +31°
    Ясно и безоблачно
    ВремяПогодаТемператураВлажностьДавлениеВетер, м/сВероятность осадков
    00:00Практически безоблачно+19°C54 %717 мм2.6 м/с5 %
    03:00Ясно и безоблачно+16°C63 %716 мм2.5 м/с5 %
    06:00Ясно и безоблачно+16°C79 %716 мм2.2 м/с5 %
    09:00Ясно и безоблачно+19°C65 %718 мм1.7 м/с5 %
    12:00Ясно и безоблачно+27°C38 %718 мм1.8 м/с5 %
    15:00Ясно и безоблачно+31°C29 %715 мм2.5 м/с5 %
    18:00Ясно и безоблачно+28°C40 %715 мм2.3 м/с5 %
    21:00Ясно и безоблачно+26°C41 %715 мм1.0 м/с5 %
  • 26июля
    Пятница
    +17°
    +31°
    Облачно с прояснениями
    ВремяПогодаТемператураВлажностьДавлениеВетер, м/сВероятность осадков
    00:00Ясно и безоблачно+20°C60 %714 мм1.5 м/с5 %
    03:00Ясно и безоблачно+17°C66 %714 мм2.2 м/с5 %
    06:00Ясно и безоблачно+18°C70 %714 мм2.2 м/с5 %
    09:00Облачно с прояснениями+20°C58 %716 мм1.6 м/с5 %
    12:00Практически безоблачно+27°C36 %717 мм0.9 м/с5 %
    15:00Облачно с прояснениями+30°C28 %715 мм0.5 м/с5 %
    18:00Облачно с прояснениями+27°C44 %715 мм1.5 м/с5 %
    21:00Облачно с прояснениями+23°C52 %715 мм1.8 м/с5 %
Мы используем cookies
Соглашаюсь